createdAt,value
2023-01-26T00:00:48.711Z,17.88
2023-01-26T00:03:21.805Z,17.35
2023-01-26T00:06:13.684Z,15.95
2023-01-26T00:08:48.806Z,16.30
2023-01-26T00:11:36.676Z,17.90
2023-01-26T00:14:09.846Z,18.00
2023-01-26T00:16:56.699Z,16.73
2023-01-26T00:19:29.797Z,16.95
2023-01-26T00:22:16.707Z,18.63
2023-01-26T00:24:49.836Z,16.88
2023-01-26T00:27:38.708Z,17.95
2023-01-26T00:30:13.099Z,21.10
2023-01-26T00:32:59.752Z,17.75
2023-01-26T00:35:35.788Z,18.13
2023-01-26T00:38:22.708Z,18.33
2023-01-26T00:40:55.829Z,17.65
2023-01-26T00:43:42.701Z,18.60
2023-01-26T00:46:22.739Z,17.67
2023-01-26T00:49:16.715Z,18.60
2023-01-26T00:52:03.734Z,17.17
2023-01-26T00:54:44.721Z,18.17
2023-01-26T00:57:31.704Z,20.83
2023-01-26T01:00:12.986Z,19.50
2023-01-26T01:02:59.735Z,15.98
2023-01-26T01:05:35.865Z,17.55
2023-01-26T01:08:22.739Z,19.45
2023-01-26T01:10:55.798Z,17.10
2023-01-26T01:13:42.756Z,18.25
2023-01-26T01:16:18.077Z,17.67
2023-01-26T01:19:04.719Z,16.20
2023-01-26T01:21:44.711Z,17.95
2023-01-26T01:24:38.722Z,16.08
2023-01-26T01:27:32.755Z,18.42
2023-01-26T01:30:26.707Z,16.80
2023-01-26T01:33:13.718Z,17.77
2023-01-26T01:35:46.814Z,17.10
2023-01-26T01:38:34.739Z,18.52
2023-01-26T01:41:14.742Z,16.70
2023-01-26T01:44:29.765Z,16.10
2023-01-26T01:47:29.785Z,17.35
2023-01-26T01:50:04.374Z,15.63
2023-01-26T01:52:50.721Z,16.75
2023-01-26T01:55:25.668Z,14.40
2023-01-26T01:58:13.805Z,15.90
2023-01-26T02:00:53.810Z,16.63
2023-01-26T02:03:49.895Z,14.73
2023-01-26T02:06:56.794Z,16.13
2023-01-26T02:10:00.760Z,15.48
2023-01-26T02:12:48.745Z,15.32
2023-01-26T02:15:28.759Z,15.15
2023-01-26T02:18:22.744Z,15.07
2023-01-26T02:21:13.859Z,16.63
2023-01-26T02:23:52.860Z,17.02
2023-01-26T02:26:41.816Z,15.60
2023-01-26T02:29:17.844Z,15.18
2023-01-26T02:32:04.883Z,15.18
2023-01-26T02:34:44.920Z,15.95
2023-01-26T02:37:24.831Z,14.25
2023-01-26T02:40:19.834Z,14.75
2023-01-26T02:43:00.787Z,15.68
2023-01-26T02:45:40.858Z,15.30
2023-01-26T02:48:20.737Z,14.60
2023-01-26T02:51:00.875Z,16.20
2023-01-26T02:53:40.752Z,16.27
2023-01-26T02:56:20.941Z,15.93
2023-01-26T02:59:00.759Z,14.82
2023-01-26T03:01:40.993Z,15.95
2023-01-26T03:04:20.812Z,14.93
2023-01-26T03:07:14.769Z,13.20
2023-01-26T03:10:09.187Z,14.48
2023-01-26T03:12:55.763Z,14.35
2023-01-26T03:15:44.064Z,15.38
2023-01-26T03:18:48.814Z,14.52
2023-01-26T03:21:41.751Z,14.68
2023-01-26T03:24:46.776Z,16.67
2023-01-26T03:27:29.235Z,14.02
2023-01-26T03:30:17.818Z,15.73
2023-01-26T03:32:50.851Z,14.82
2023-01-26T03:35:38.781Z,14.43
2023-01-26T03:38:18.781Z,15.85
2023-01-26T03:41:23.842Z,14.93
2023-01-26T03:44:21.756Z,14.80
2023-01-26T03:47:26.792Z,15.43
2023-01-26T03:50:24.773Z,15.57
2023-01-26T03:53:46.751Z,15.35
2023-01-26T03:56:40.771Z,15.00
2023-01-26T03:59:44.818Z,15.18
2023-01-26T04:02:43.827Z,14.02
2023-01-26T04:05:55.760Z,14.27
2023-01-26T04:09:09.782Z,15.68
2023-01-26T04:12:11.771Z,16.13
2023-01-26T04:15:23.823Z,14.73
2023-01-26T04:18:32.782Z,14.27
2023-01-26T04:21:29.093Z,15.05
2023-01-26T04:24:20.804Z,15.10
2023-01-26T04:26:54.947Z,15.00
2023-01-26T04:29:41.813Z,17.02
2023-01-26T04:32:14.868Z,16.75
2023-01-26T04:35:01.786Z,16.45
2023-01-26T04:37:34.878Z,15.07
2023-01-26T04:40:21.774Z,16.20
2023-01-26T04:42:54.878Z,16.33
2023-01-26T04:45:41.805Z,16.65
2023-01-26T04:48:21.794Z,15.40
2023-01-26T04:51:11.767Z,15.30
2023-01-26T04:53:44.939Z,15.68
2023-01-26T04:56:36.772Z,16.52
2023-01-26T04:59:12.977Z,17.05
2023-01-26T05:01:59.792Z,16.65
2023-01-26T05:04:32.899Z,16.35
2023-01-26T05:07:19.796Z,17.17
2023-01-26T05:09:59.815Z,16.73
2023-01-26T05:12:49.791Z,16.35
2023-01-26T05:15:22.955Z,14.40
2023-01-26T05:18:10.794Z,15.48
2023-01-26T05:20:50.803Z,14.25
2023-01-26T05:23:44.776Z,15.55
2023-01-26T05:26:31.808Z,13.43
2023-01-26T05:29:04.881Z,14.32
2023-01-26T05:31:51.859Z,15.95
2023-01-26T05:34:31.799Z,16.85
2023-01-26T05:37:18.798Z,18.30
2023-01-26T05:39:59.802Z,19.08
2023-01-26T05:42:53.806Z,18.85
2023-01-26T05:45:41.921Z,17.73
2023-01-26T05:48:14.951Z,16.83
2023-01-26T05:51:04.136Z,15.75
2023-01-26T05:53:39.898Z,16.65
2023-01-26T05:56:26.799Z,16.42
2023-01-26T05:59:06.797Z,17.40
2023-01-26T06:01:53.813Z,16.02
2023-01-26T06:04:26.983Z,15.98
2023-01-26T06:07:13.788Z,16.52
2023-01-26T06:09:54.788Z,14.27
2023-01-26T06:12:49.824Z,16.90
2023-01-26T06:15:43.810Z,14.27
2023-01-26T06:18:30.833Z,12.40
2023-01-26T06:21:06.940Z,13.07
2023-01-26T06:23:53.802Z,13.30
2023-01-26T06:26:26.927Z,13.30
2023-01-26T06:29:13.811Z,14.15
2023-01-26T06:31:53.816Z,14.93
2023-01-26T06:34:47.809Z,16.10
2023-01-26T06:37:34.829Z,14.95
2023-01-26T06:40:07.913Z,13.25
2023-01-26T06:42:57.817Z,13.60
2023-01-26T06:45:37.846Z,14.40
2023-01-26T06:48:24.825Z,14.68
2023-01-26T06:51:05.835Z,13.80
2023-01-26T06:54:09.831Z,14.45
2023-01-26T06:56:56.829Z,16.65
2023-01-26T06:59:37.668Z,16.77
2023-01-26T07:02:34.023Z,16.60
2023-01-26T07:05:27.825Z,17.10
2023-01-26T07:08:15.808Z,15.85
2023-01-26T07:10:48.916Z,16.50
2023-01-26T07:13:35.832Z,15.70
2023-01-26T07:16:08.997Z,16.20
2023-01-26T07:18:55.854Z,17.48
2023-01-26T07:21:29.955Z,17.05
2023-01-26T07:24:16.906Z,20.98
2023-01-26T07:26:49.957Z,17.20
2023-01-26T07:29:36.840Z,18.13
2023-01-26T07:32:12.943Z,18.40
2023-01-26T07:34:59.829Z,17.55
2023-01-26T07:37:36.943Z,16.17
2023-01-26T07:40:23.829Z,15.48
2023-01-26T07:43:03.845Z,22.08
2023-01-26T07:46:05.888Z,20.85
2023-01-26T07:48:59.848Z,17.20
2023-01-26T07:51:47.862Z,20.23
2023-01-26T07:54:23.929Z,18.73
2023-01-26T07:57:13.835Z,18.17
2023-01-26T07:59:46.938Z,17.80
2023-01-26T08:02:33.864Z,18.17
2023-01-26T08:05:13.845Z,19.27
2023-01-26T08:08:04.875Z,18.13
2023-01-26T08:10:38.237Z,19.90
2023-01-26T08:13:34.678Z,16.67
2023-01-26T08:16:21.885Z,17.13
2023-01-26T08:19:15.829Z,17.77
2023-01-26T08:22:03.852Z,16.38
2023-01-26T08:24:43.862Z,14.77
2023-01-26T08:27:37.871Z,17.92
2023-01-26T08:30:31.914Z,16.52
2023-01-26T08:33:25.857Z,21.17
2023-01-26T08:36:14.864Z,22.17
2023-01-26T08:38:55.836Z,18.25
2023-01-26T08:41:42.863Z,19.48
2023-01-26T08:44:16.960Z,27.70
2023-01-26T08:47:03.849Z,23.20
2023-01-26T08:49:36.977Z,18.15
2023-01-26T08:52:23.846Z,22.10
2023-01-26T08:54:56.978Z,18.65
2023-01-26T08:57:43.856Z,20.83
2023-01-26T09:00:17.977Z,21.80
2023-01-26T09:03:06.981Z,22.27
2023-01-26T09:05:51.865Z,20.30
2023-01-26T09:08:45.907Z,16.90
2023-01-26T09:11:39.886Z,19.45
2023-01-26T09:14:26.882Z,19.42
2023-01-26T09:16:59.962Z,20.42
2023-01-26T09:19:46.984Z,21.00
2023-01-26T09:22:19.974Z,19.92
2023-01-26T09:25:06.849Z,23.05
2023-01-26T09:27:42.037Z,19.67
2023-01-26T09:30:30.939Z,16.58
2023-01-26T09:33:13.918Z,16.15
2023-01-26T09:36:07.893Z,16.17
2023-01-26T09:38:54.863Z,17.70
2023-01-26T09:42:12.981Z,22.13
2023-01-26T09:45:20.860Z,16.67
2023-01-26T09:48:24.994Z,15.32
2023-01-26T09:51:34.872Z,18.00
2023-01-26T09:54:26.880Z,17.70
2023-01-26T09:57:33.890Z,21.13
2023-01-26T10:00:21.916Z,17.83
2023-01-26T10:03:20.978Z,18.15
2023-01-26T10:06:27.911Z,17.05
2023-01-26T10:09:14.884Z,18.70
2023-01-26T10:12:13.901Z,15.27
2023-01-26T10:15:31.951Z,17.92
2023-01-26T10:18:37.920Z,18.45
2023-01-26T10:21:28.922Z,14.70
2023-01-26T10:24:11.962Z,16.88
2023-01-26T10:27:04.934Z,16.35
2023-01-26T10:29:38.027Z,18.23
2023-01-26T10:32:24.894Z,17.20
2023-01-26T10:35:01.039Z,17.77
2023-01-26T10:37:47.913Z,15.80
2023-01-26T10:40:21.724Z,19.40
2023-01-26T10:43:08.887Z,16.77
2023-01-26T10:45:52.018Z,18.80
2023-01-26T10:48:38.896Z,15.35
2023-01-26T10:51:22.999Z,19.77
2023-01-26T10:54:26.899Z,20.17
2023-01-26T10:57:15.913Z,17.90
2023-01-26T11:00:15.923Z,16.42
2023-01-26T11:03:17.903Z,16.73
2023-01-26T11:06:24.910Z,15.65
2023-01-26T11:08:57.991Z,22.42
2023-01-26T11:11:44.900Z,36.20
2023-01-26T11:14:26.046Z,25.88
2023-01-26T11:17:26.913Z,27.40
2023-01-26T11:20:06.906Z,23.95
2023-01-26T11:23:17.905Z,18.65
2023-01-26T11:26:07.925Z,21.60
2023-01-26T11:28:53.032Z,17.92
2023-01-26T11:31:52.931Z,18.33
2023-01-26T11:34:44.016Z,16.40
2023-01-26T11:37:46.927Z,16.63
2023-01-26T11:40:25.881Z,17.05
2023-01-26T11:43:37.928Z,17.08
2023-01-26T11:46:35.930Z,17.45
2023-01-26T11:49:50.927Z,16.60
2023-01-26T11:53:04.926Z,22.45
2023-01-26T11:55:59.943Z,17.60
2023-01-26T11:58:46.019Z,17.00
2023-01-26T12:01:40.914Z,17.02
2023-01-26T12:04:30.931Z,19.98
2023-01-26T12:07:33.915Z,18.08
2023-01-26T12:10:18.962Z,18.20
2023-01-26T12:13:18.928Z,18.20
2023-01-26T12:16:01.057Z,21.02
2023-01-26T12:19:10.178Z,19.00
2023-01-26T12:21:48.083Z,17.48
2023-01-26T12:25:12.271Z,21.63
2023-01-26T12:27:45.035Z,18.70
2023-01-26T12:30:45.062Z,19.75
2023-01-26T12:33:19.022Z,19.73
2023-01-26T12:36:23.972Z,16.30
2023-01-26T12:39:09.938Z,19.13
2023-01-26T12:42:24.950Z,21.33
2023-01-26T12:45:13.299Z,17.83
2023-01-26T12:48:13.959Z,17.20
2023-01-26T12:50:56.041Z,24.60
2023-01-26T12:53:48.929Z,26.73
2023-01-26T12:56:41.948Z,27.10
2023-01-26T12:59:49.230Z,26.20
2023-01-26T13:02:41.012Z,17.20
2023-01-26T13:05:44.949Z,18.30
2023-01-26T13:08:37.965Z,22.02
2023-01-26T13:11:14.049Z,19.75
2023-01-26T13:14:02.970Z,18.48
2023-01-26T13:16:36.106Z,21.58
2023-01-26T13:19:42.993Z,24.20
2023-01-26T13:22:25.048Z,19.15
2023-01-26T13:25:39.960Z,21.45
2023-01-26T13:28:20.057Z,20.33
2023-01-26T13:31:13.986Z,21.55
2023-01-26T13:33:48.059Z,26.55
2023-01-26T13:36:41.953Z,20.13
2023-01-26T13:39:35.958Z,21.77
2023-01-26T13:42:35.972Z,25.08
2023-01-26T13:45:50.963Z,22.75
2023-01-26T13:48:53.963Z,23.27
2023-01-26T13:51:41.976Z,25.90
2023-01-26T13:54:21.072Z,28.98
2023-01-26T13:57:13.973Z,23.13
2023-01-26T13:59:59.198Z,22.20
2023-01-26T14:02:46.010Z,31.50
2023-01-26T14:05:28.052Z,25.55
2023-01-26T14:08:22.963Z,23.90
2023-01-26T14:11:04.019Z,27.02
2023-01-26T14:13:53.979Z,21.02
2023-01-26T14:16:42.963Z,22.85
2023-01-26T14:19:37.008Z,25.52
2023-01-26T14:22:30.973Z,20.98
2023-01-26T14:25:24.943Z,21.92
2023-01-26T14:28:12.968Z,19.20
2023-01-26T14:30:54.030Z,16.45
2023-01-26T14:33:47.995Z,18.63
2023-01-26T14:36:40.016Z,17.90
2023-01-26T14:39:35.988Z,22.00
2023-01-26T14:42:27.008Z,22.77
2023-01-26T14:45:00.063Z,25.33
2023-01-26T14:47:49.005Z,27.80
2023-01-26T14:50:32.349Z,25.33
2023-01-26T14:53:36.998Z,19.13
2023-01-26T14:56:16.987Z,18.40
2023-01-26T14:59:04.014Z,18.48
2023-01-26T15:01:45.028Z,18.83
2023-01-26T15:04:50.005Z,16.45
2023-01-26T15:07:52.020Z,17.65
2023-01-26T15:10:46.983Z,20.23
2023-01-26T15:13:20.085Z,24.83
2023-01-26T15:16:14.979Z,19.73
2023-01-26T15:18:55.034Z,20.70
2023-01-26T15:21:53.985Z,23.63
2023-01-26T15:24:41.004Z,22.65
2023-01-26T15:27:14.110Z,25.00
2023-01-26T15:30:05.985Z,23.27
2023-01-26T15:32:53.005Z,28.15
2023-01-26T15:35:48.023Z,19.70
2023-01-26T15:38:42.046Z,22.52
2023-01-26T15:41:36.002Z,27.55
2023-01-26T15:44:25.015Z,29.63
2023-01-26T15:46:59.340Z,19.50
2023-01-26T15:49:48.984Z,34.46
2023-01-26T15:52:25.591Z,40.97
2023-01-26T15:55:31.990Z,28.13
2023-01-26T15:58:05.116Z,21.88
2023-01-26T16:00:53.071Z,24.23
2023-01-26T16:03:28.897Z,27.95
2023-01-26T16:06:27.019Z,21.23
2023-01-26T16:09:01.085Z,19.85
2023-01-26T16:11:55.011Z,22.95
2023-01-26T16:14:35.002Z,21.63
2023-01-26T16:17:32.001Z,21.55
2023-01-26T16:20:19.019Z,29.70
2023-01-26T16:22:53.497Z,25.65
2023-01-26T16:25:40.007Z,26.48
2023-01-26T16:28:13.136Z,32.13
2023-01-26T16:31:02.435Z,26.65
2023-01-26T16:33:36.110Z,31.50
2023-01-26T16:36:25.017Z,27.52
2023-01-26T16:39:05.021Z,30.13
2023-01-26T16:41:58.997Z,28.52
2023-01-26T16:44:46.022Z,28.58
2023-01-26T16:47:19.114Z,34.67
2023-01-26T16:50:06.028Z,33.72
2023-01-26T16:52:41.442Z,31.27
2023-01-26T16:55:28.046Z,32.88
2023-01-26T16:58:01.434Z,27.70
2023-01-26T17:00:48.067Z,23.70
2023-01-26T17:03:21.126Z,31.23
2023-01-26T17:06:08.029Z,37.22
2023-01-26T17:08:41.267Z,31.00
2023-01-26T17:11:31.025Z,28.52
2023-01-26T17:14:11.121Z,30.08
2023-01-26T17:17:05.030Z,24.63
2023-01-26T17:20:12.557Z,25.17
2023-01-26T17:23:05.044Z,27.30
2023-01-26T17:25:38.118Z,25.88
2023-01-26T17:28:25.057Z,27.88
2023-01-26T17:31:00.881Z,34.38
2023-01-26T17:33:48.013Z,28.73
2023-01-26T17:36:29.061Z,30.63
2023-01-26T17:39:17.038Z,26.13
2023-01-26T17:41:57.046Z,24.45
2023-01-26T17:44:44.028Z,32.50
2023-01-26T17:47:18.131Z,29.05
2023-01-26T17:50:05.056Z,26.30
2023-01-26T17:52:38.230Z,27.27
2023-01-26T17:55:25.056Z,28.23
2023-01-26T17:57:58.147Z,30.02
2023-01-26T18:00:46.098Z,25.67
2023-01-26T18:03:27.081Z,28.80
2023-01-26T18:06:14.054Z,28.48
2023-01-26T18:08:48.588Z,32.75
2023-01-26T18:11:35.060Z,32.50
2023-01-26T18:14:08.164Z,34.58
2023-01-26T18:17:02.059Z,34.63
2023-01-26T18:19:56.034Z,36.63
2023-01-26T18:22:43.073Z,33.40
2023-01-26T18:25:17.695Z,28.50
2023-01-26T18:28:04.073Z,33.67
2023-01-26T18:30:37.208Z,33.38
2023-01-26T18:33:24.068Z,26.92
2023-01-26T18:35:57.142Z,28.13
2023-01-26T18:38:48.048Z,30.05
2023-01-26T18:41:23.234Z,26.42
2023-01-26T18:44:10.053Z,25.58
2023-01-26T18:46:43.216Z,23.48
2023-01-26T18:49:30.103Z,23.25
2023-01-26T18:52:03.168Z,22.58
2023-01-26T18:54:50.053Z,23.40
2023-01-26T18:57:30.064Z,21.85
2023-01-26T19:00:24.114Z,22.02
2023-01-26T19:03:11.080Z,24.08
2023-01-26T19:05:45.259Z,29.08
2023-01-26T19:08:32.084Z,21.70
2023-01-26T19:11:15.379Z,22.20
2023-01-26T19:14:02.096Z,22.23
2023-01-26T19:16:43.094Z,23.67
2023-01-26T19:19:30.091Z,26.65
2023-01-26T19:22:10.093Z,26.90
2023-01-26T19:24:57.060Z,28.90
2023-01-26T19:27:30.167Z,24.50
2023-01-26T19:30:17.079Z,30.80
2023-01-26T19:33:08.838Z,30.58
2023-01-26T19:35:55.069Z,27.77
2023-01-26T19:38:40.081Z,31.27
2023-01-26T19:41:28.097Z,30.30
2023-01-26T19:44:01.365Z,27.45
2023-01-26T19:46:48.073Z,22.73
2023-01-26T19:49:21.479Z,30.38
2023-01-26T19:52:08.124Z,23.70
2023-01-26T19:54:41.186Z,25.20
2023-01-26T19:57:28.077Z,29.42
2023-01-26T20:00:01.283Z,22.30
2023-01-26T20:02:48.098Z,23.52
2023-01-26T20:05:21.244Z,20.30
2023-01-26T20:08:08.093Z,18.60
2023-01-26T20:10:41.222Z,17.98
2023-01-26T20:13:28.113Z,18.23
2023-01-26T20:16:02.253Z,22.15
2023-01-26T20:18:49.136Z,19.70
2023-01-26T20:21:22.569Z,24.67
2023-01-26T20:24:09.158Z,23.13
2023-01-26T20:26:51.100Z,35.28
2023-01-26T20:29:39.097Z,25.80
2023-01-26T20:32:12.207Z,25.48
2023-01-26T20:34:59.095Z,30.27
2023-01-26T20:37:32.217Z,30.15
2023-01-26T20:40:19.092Z,32.17
2023-01-26T20:42:59.125Z,24.90
2023-01-26T20:45:54.235Z,23.25
2023-01-26T20:48:42.115Z,21.45
2023-01-26T20:51:25.119Z,21.73
2023-01-26T20:54:21.100Z,25.92
2023-01-26T20:57:09.129Z,24.58
2023-01-26T20:59:42.234Z,20.85
2023-01-26T21:02:29.112Z,22.42
2023-01-26T21:05:02.228Z,23.98
2023-01-26T21:07:49.096Z,26.08
2023-01-26T21:10:23.242Z,25.92
2023-01-26T21:13:10.110Z,23.73
2023-01-26T21:15:43.197Z,27.90
2023-01-26T21:18:30.115Z,27.00
2023-01-26T21:21:05.215Z,27.90
2023-01-26T21:23:52.130Z,33.63
2023-01-26T21:26:32.804Z,27.48
2023-01-26T21:29:22.135Z,32.53
2023-01-26T21:31:55.361Z,29.55
2023-01-26T21:34:45.104Z,34.97
2023-01-26T21:37:25.137Z,29.00
2023-01-26T21:40:19.112Z,33.92
2023-01-26T21:43:13.127Z,27.58
2023-01-26T21:46:03.172Z,28.70
2023-01-26T21:48:43.126Z,30.17
2023-01-26T21:51:50.126Z,29.00
2023-01-26T21:54:23.291Z,26.55
2023-01-26T21:57:31.125Z,25.85
2023-01-26T22:00:11.343Z,26.13
2023-01-26T22:03:07.142Z,24.98
2023-01-26T22:06:00.157Z,20.63
2023-01-26T22:08:33.376Z,29.20
2023-01-26T22:11:23.159Z,27.33
2023-01-26T22:13:56.376Z,27.63
2023-01-26T22:16:50.273Z,25.10
2023-01-26T22:19:44.123Z,21.80
2023-01-26T22:22:31.165Z,21.48
2023-01-26T22:25:04.250Z,17.70
2023-01-26T22:27:51.167Z,17.73
2023-01-26T22:30:32.156Z,22.38
2023-01-26T22:33:19.153Z,18.80
2023-01-26T22:35:59.165Z,26.33
2023-01-26T22:38:47.161Z,22.73
2023-01-26T22:41:30.157Z,18.80
2023-01-26T22:44:24.141Z,21.30
2023-01-26T22:47:18.157Z,21.42
2023-01-26T22:50:12.458Z,22.15
2023-01-26T22:52:59.133Z,23.83
2023-01-26T22:55:32.255Z,23.92
2023-01-26T22:58:19.130Z,30.92
2023-01-26T23:00:53.295Z,50.90
2023-01-26T23:03:40.151Z,26.52
2023-01-26T23:06:16.253Z,25.65
2023-01-26T23:09:05.194Z,21.52
2023-01-26T23:11:38.248Z,22.02
2023-01-26T23:14:25.212Z,23.90
2023-01-26T23:16:58.253Z,24.85
2023-01-26T23:19:45.162Z,24.10
2023-01-26T23:22:18.259Z,28.95
2023-01-26T23:25:23.136Z,30.02
2023-01-26T23:28:03.169Z,26.17
2023-01-26T23:30:50.251Z,23.92
2023-01-26T23:33:24.352Z,21.92
2023-01-26T23:36:12.167Z,25.20
2023-01-26T23:38:52.147Z,21.50
2023-01-26T23:41:46.197Z,24.85
2023-01-26T23:44:33.147Z,23.45
2023-01-26T23:47:06.372Z,28.50
2023-01-26T23:49:53.163Z,30.05
2023-01-26T23:52:33.195Z,28.98
2023-01-26T23:55:27.160Z,25.85
2023-01-26T23:58:21.188Z,27.63
